Time;durP1;ratioP1;P1;durP2;ratioP2;P2;SDS_P1;SDS_P2;PMS_P1;PMS_P2;Temp;Humidity;BMP_temperature;BMP_pressure;BME280_temperature;BME280_humidity;BME280_pressure;Samples;Min_cycle;Max_cycle;Signal;HPM_P1;HPM_P2
2021/05/06 00:05:04;;;;;;;4.32;1.40;;;;;;;20.00;56.86;100610.31;143738;648;46019;-74
2021/05/06 00:32:32;;;;;;;6.40;1.73;;;;;;;19.74;57.34;100624.44;143740;606;46008;-76
2021/05/06 00:34:59;;;;;;;7.65;1.60;;;;;;;19.71;57.53;100614.00;143740;576;46020;-76
2021/05/06 00:37:27;;;;;;;5.75;1.60;;;;;;;19.68;57.47;100614.19;143739;600;46016;-77
2021/05/06 00:40:01;;;;;;;5.10;1.50;;;;;;;19.71;57.31;100614.00;143742;588;46009;-77
2021/05/06 00:42:39;;;;;;;5.72;1.80;;;;;;;19.70;57.55;100600.78;143739;579;47008;-79
2021/05/06 01:02:11;;;;;;;6.40;1.48;;;;;;;19.40;58.21;100593.91;143740;592;47008;-79
2021/05/06 01:04:56;;;;;;;6.93;1.70;;;;;;;19.44;57.29;100609.56;143736;616;47008;-79
2021/05/06 01:07:48;;;;;;;6.55;1.45;;;;;;;19.54;57.70;100600.97;143741;631;45028;-83
2021/05/06 01:10:29;;;;;;;5.50;1.30;;;;;;;19.44;57.80;100611.38;143737;579;46017;-81
2021/05/06 01:12:56;;;;;;;5.47;1.50;;;;;;;19.43;57.38;100615.84;143737;626;47008;-74
2021/05/06 01:15:24;;;;;;;3.80;1.60;;;;;;;19.26;57.42;100597.50;143738;657;46008;-88
2021/05/06 01:17:52;;;;;;;5.95;1.98;;;;;;;19.34;57.40;100623.59;143740;578;47010;-83
2021/05/06 01:20:20;;;;;;;6.68;1.55;;;;;;;19.30;57.41;100616.75;143735;665;47012;-81
2021/05/06 01:22:47;;;;;;;4.87;1.60;;;;;;;19.34;57.62;100627.13;143738;591;47008;-82
2021/05/06 01:25:15;;;;;;;4.43;1.37;;;;;;;19.31;57.45;100619.31;143739;577;47010;-89
2021/05/06 01:28:05;;;;;;;5.65;1.40;;;;;;;19.27;57.51;100625.81;143739;616;47008;-82
2021/05/06 01:30:45;;;;;;;5.47;1.73;;;;;;;19.16;57.61;100623.00;143732;588;47018;-85
2021/05/06 01:36:15;;;;;;;9.50;2.10;;;;;;;19.21;57.34;100626.22;143738;594;47008;-85
2021/05/06 01:41:58;;;;;;;6.15;1.75;;;;;;;19.20;57.22;100620.03;143737;596;46019;-85
2021/05/06 01:47:37;;;;;;;6.60;1.80;;;;;;;19.19;57.04;100613.03;143737;585;47008;-88
2021/05/06 01:58:32;;;;;;;7.72;2.08;;;;;;;19.18;56.67;100623.78;143741;575;47008;-78
2021/05/06 02:01:06;;;;;;;5.97;1.92;;;;;;;19.09;57.01;100620.72;143739;724;48010;-78
2021/05/06 02:03:34;;;;;;;5.32;1.70;;;;;;;19.00;56.95;100615.16;143736;574;48021;-79
2021/05/06 02:06:03;;;;;;;6.32;1.80;;;;;;;18.94;57.51;100619.94;143738;585;46020;-79
2021/05/06 02:08:31;;;;;;;8.52;2.10;;;;;;;18.92;56.98;100611.19;143741;564;46018;-78
2021/05/06 02:11:00;;;;;;;6.53;1.98;;;;;;;18.88;57.39;100611.50;143741;566;47010;-78
2021/05/06 02:13:28;;;;;;;7.40;2.15;;;;;;;18.77;56.81;100620.13;143737;566;46016;-79
2021/05/06 02:16:04;;;;;;;7.28;1.70;;;;;;;18.77;57.29;100613.00;143740;699;46008;-79
2021/05/06 02:18:35;;;;;;;6.50;1.73;;;;;;;18.68;57.20;100623.37;143739;569;46905;-84
2021/05/06 02:21:02;;;;;;;7.45;2.28;;;;;;;18.57;57.61;100626.72;143741;573;47010;-86
2021/05/06 02:23:30;;;;;;;5.40;2.05;;;;;;;18.57;57.30;100627.56;143740;597;46010;-78
2021/05/06 02:25:57;;;;;;;7.12;2.15;;;;;;;18.55;57.65;100634.78;143739;572;46010;-89
2021/05/06 02:28:24;;;;;;;10.25;2.22;;;;;;;18.51;57.19;100635.94;143738;617;46018;-91
2021/05/06 02:30:51;;;;;;;5.60;2.20;;;;;;;18.53;57.44;100626.03;143739;587;46019;-89
2021/05/06 02:33:18;;;;;;;5.35;2.08;;;;;;;18.48;57.67;100624.63;143739;638;45904;-85
2021/05/06 02:35:45;;;;;;;7.03;1.80;;;;;;;18.47;57.31;100623.78;143739;630;46020;-78
2021/05/06 02:38:12;;;;;;;4.75;1.65;;;;;;;18.37;57.18;100630.59;143737;605;46019;-77
2021/05/06 02:40:39;;;;;;;5.80;1.52;;;;;;;18.33;57.26;100629.97;143740;587;47010;-78
2021/05/06 02:43:06;;;;;;;4.18;1.67;;;;;;;18.32;57.12;100628.25;143738;579;46016;-80
2021/05/06 02:45:34;;;;;;;6.28;1.83;;;;;;;18.40;57.04;100625.12;143738;700;46021;-78
2021/05/06 02:48:01;;;;;;;8.52;1.87;;;;;;;18.41;57.14;100618.81;143740;605;46008;-78
2021/05/06 02:50:29;;;;;;;7.78;1.80;;;;;;;18.38;56.98;100630.50;143740;650;46008;-84
2021/05/06 02:53:10;;;;;;;6.35;1.65;;;;;;;18.36;56.91;100626.25;143741;599;46017;-80
2021/05/06 02:58:55;;;;;;;7.20;1.70;;;;;;;18.31;57.42;100631.84;143741;571;47008;-76
2021/05/06 03:04:03;;;;;;;7.80;1.60;;;;;;;18.18;57.43;100641.50;143737;596;46906;-76
2021/05/06 03:06:34;;;;;;;12.63;1.90;;;;;;;17.99;57.28;100613.41;143739;571;46010;-79
2021/05/06 03:09:19;;;;;;;5.80;1.62;;;;;;;18.10;57.33;100642.00;143737;564;46019;-76
2021/05/06 03:11:59;;;;;;;8.93;1.70;;;;;;;18.11;57.62;100646.34;143741;578;46008;-76
2021/05/06 03:21:06;;;;;;;6.20;1.80;;;;;;;18.13;57.40;100671.03;143739;566;46010;-75
2021/05/06 03:22:59;;;;;;;9.10;1.87;;;;;;;18.12;57.39;100668.47;143740;608;46021;-77
2021/05/06 03:25:29;;;;;;;12.82;1.90;;;;;;;18.16;57.52;100683.28;143740;590;46016;-75
2021/05/06 03:28:01;;;;;;;6.60;2.05;;;;;;;18.21;57.09;100697.16;143740;577;46020;-74
2021/05/06 03:41:46;;;;;;;8.13;2.17;;;;;;;18.38;56.73;100720.88;143740;595;46008;-72
2021/05/06 03:47:19;;;;;;;7.62;2.20;;;;;;;18.38;56.84;100723.53;143738;589;46017;-73
2021/05/06 04:12:29;;;;;;;11.82;4.10;;;;;;;18.35;57.07;100776.88;143739;773;46008;-74
2021/05/06 04:18:04;;;;;;;11.85;3.50;;;;;;;18.34;57.32;100775.16;143742;602;46020;-73
2021/05/06 04:26:23;;;;;;;8.38;2.70;;;;;;;18.58;56.83;100782.63;143739;564;47008;-89
2021/05/06 04:29:47;;;;;;;10.25;2.83;;;;;;;18.69;56.67;100780.19;143741;581;46008;-81
2021/05/06 04:37:14;;;;;;;8.80;2.75;;;;;;;19.12;56.45;100787.31;143738;596;46008;-77
2021/05/06 04:39:49;;;;;;;8.75;2.55;;;;;;;19.31;56.03;100797.66;143741;614;46018;-75
2021/05/06 04:42:51;;;;;;;8.85;2.33;;;;;;;19.48;55.44;100787.75;143740;590;45016;-75
2021/05/06 04:54:10;;;;;;;8.73;2.15;;;;;;;20.08;53.19;100806.06;143739;680;46010;-85
2021/05/06 04:56:50;;;;;;;7.30;1.80;;;;;;;20.33;51.26;100807.06;143742;575;46008;-82
2021/05/06 05:04:48;;;;;;;6.40;1.90;;;;;;;20.92;51.57;100819.94;143740;586;46018;-87
2021/05/06 05:07:20;;;;;;;11.02;2.00;;;;;;;21.16;50.22;100821.00;143741;596;46010;-87
2021/05/06 05:24:12;;;;;;;6.57;1.45;;;;;;;21.71;47.75;100840.25;143740;578;46008;-87
2021/05/06 05:26:38;;;;;;;6.60;1.70;;;;;;;21.87;47.07;100847.97;143737;569;47018;-91
2021/05/06 05:29:05;;;;;;;5.93;1.60;;;;;;;21.91;47.11;100857.47;143740;604;46021;-82
2021/05/06 05:31:32;;;;;;;6.60;2.15;;;;;;;22.04;46.96;100855.59;143740;564;46010;-82
2021/05/06 05:34:15;;;;;;;10.15;1.92;;;;;;;22.18;46.48;100854.56;143740;594;46020;-88
2021/05/06 05:36:42;;;;;;;10.57;1.87;;;;;;;22.21;45.25;100856.16;143737;593;47020;-86
2021/05/06 05:39:28;;;;;;;7.18;1.75;;;;;;;22.28;45.25;100852.06;143739;619;46021;-92
2021/05/06 05:45:23;;;;;;;11.45;2.00;;;;;;;22.18;44.69;100851.06;143738;571;49008;-81
2021/05/06 05:56:00;;;;;;;5.78;1.85;;;;;;;22.54;45.34;100865.31;143743;715;46008;-81
2021/05/06 05:58:27;;;;;;;5.82;1.50;;;;;;;22.76;44.50;100878.78;143737;589;46017;-83
2021/05/06 06:00:54;;;;;;;9.85;1.77;;;;;;;22.82;44.03;100878.28;143739;638;46020;-85
2021/05/06 06:03:22;;;;;;;8.75;1.45;;;;;;;22.93;43.75;100896.19;143739;581;46018;-82
2021/05/06 06:05:52;;;;;;;7.80;1.67;;;;;;;22.98;43.82;100896.69;143740;572;46008;-84
2021/05/06 06:08:25;;;;;;;5.68;1.73;;;;;;;23.07;43.79;100900.47;143737;600;46905;-83
2021/05/06 06:10:52;;;;;;;9.75;1.70;;;;;;;23.14;43.90;100885.69;143739;593;46008;-77
2021/05/06 06:13:20;;;;;;;7.97;1.80;;;;;;;23.34;42.63;100885.94;143741;643;46008;-76
2021/05/06 06:15:57;;;;;;;8.18;1.90;;;;;;;23.48;42.97;100891.06;143739;663;46020;-79
2021/05/06 06:18:31;;;;;;;9.80;2.42;;;;;;;23.50;43.08;100888.25;143737;569;46016;-76
2021/05/06 06:21:03;;;;;;;6.22;1.83;;;;;;;23.60;42.39;100883.84;143739;570;46027;-81
2021/05/06 06:23:30;;;;;;;8.02;1.58;;;;;;;23.71;42.54;100877.63;143739;602;47010;-81
2021/05/06 06:26:00;;;;;;;6.47;1.77;;;;;;;23.80;42.38;100868.00;143743;585;45049;-81
2021/05/06 06:28:36;;;;;;;6.12;1.80;;;;;;;23.94;41.61;100877.59;143738;574;47010;-81
2021/05/06 06:31:03;;;;;;;7.62;1.75;;;;;;;23.92;41.83;100883.09;143741;570;46010;-80
2021/05/06 06:33:30;;;;;;;4.32;1.70;;;;;;;23.99;41.19;100888.81;143741;566;46018;-82
2021/05/06 06:35:57;;;;;;;4.72;1.90;;;;;;;24.07;41.02;100893.53;143740;609;46019;-81
2021/05/06 06:38:24;;;;;;;7.95;1.62;;;;;;;24.13;40.11;100901.91;143737;637;46905;-81
2021/05/06 06:40:51;;;;;;;5.15;1.83;;;;;;;24.12;40.51;100910.94;143737;633;46020;-83
2021/05/06 06:43:19;;;;;;;6.15;1.60;;;;;;;24.12;40.38;100900.22;143735;634;47008;-78
2021/05/06 06:45:46;;;;;;;6.87;1.85;;;;;;;24.07;40.00;100867.59;143740;569;46021;-85
2021/05/06 06:48:13;;;;;;;7.47;1.65;;;;;;;24.15;41.04;100893.75;143738;588;47018;-85
2021/05/06 06:50:40;;;;;;;6.78;1.80;;;;;;;24.22;41.00;100888.72;143740;594;46008;-93
2021/05/06 06:53:09;;;;;;;12.10;1.80;;;;;;;24.51;41.08;100883.63;143741;611;46016;-84
2021/05/06 06:55:37;;;;;;;7.05;1.85;;;;;;;24.53;38.91;100881.66;143741;619;46020;-85
2021/05/06 06:58:14;;;;;;;7.40;1.95;;;;;;;24.59;40.95;100873.09;143739;632;46011;-83
2021/05/06 07:00:43;;;;;;;7.47;1.73;;;;;;;24.77;40.01;100838.47;143739;647;46010;-82
2021/05/06 07:03:12;;;;;;;7.72;1.80;;;;;;;25.03;39.08;100875.66;143738;578;46020;-82
2021/05/06 07:05:40;;;;;;;8.05;1.87;;;;;;;24.91;37.46;100885.59;143741;595;46009;-84
2021/05/06 07:08:29;;;;;;;11.57;2.30;;;;;;;25.16;40.02;100884.34;143738;600;46010;-83
2021/05/06 07:10:59;;;;;;;8.18;1.70;;;;;;;25.39;38.35;100884.19;143740;725;46008;-83
2021/05/06 07:13:27;;;;;;;5.85;1.77;;;;;;;25.38;39.61;100887.84;143736;590;46019;-83
2021/05/06 07:16:01;;;;;;;5.53;1.58;;;;;;;25.46;36.81;100888.03;143742;622;46021;-86
2021/05/06 07:18:29;;;;;;;7.45;1.70;;;;;;;25.56;36.28;100885.38;143738;824;46016;-84
2021/05/06 07:20:56;;;;;;;5.05;1.70;;;;;;;25.61;37.05;100882.28;143740;583;46021;-83
2021/05/06 07:23:25;;;;;;;8.65;1.73;;;;;;;25.72;38.72;100879.47;143743;870;46018;-85
2021/05/06 07:25:57;;;;;;;7.32;1.73;;;;;;;25.76;36.64;100886.28;143742;825;46008;-86
2021/05/06 07:28:37;;;;;;;6.10;1.55;;;;;;;25.90;37.81;100886.88;143739;667;47018;-84
2021/05/06 07:31:07;;;;;;;7.25;1.90;;;;;;;25.92;37.24;100890.28;143737;595;46008;-87
2021/05/06 07:33:34;;;;;;;8.57;1.87;;;;;;;25.98;35.58;100887.03;143740;662;46008;-84
2021/05/06 07:36:03;;;;;;;7.00;1.73;;;;;;;26.18;36.19;100891.47;143740;631;46020;-83
2021/05/06 07:38:31;;;;;;;8.40;1.60;;;;;;;26.39;36.91;100887.78;143737;630;47008;-92
2021/05/06 07:41:00;;;;;;;6.70;1.50;;;;;;;26.69;36.64;100883.25;143741;588;46008;-88
2021/05/06 07:43:31;;;;;;;6.97;1.70;;;;;;;26.91;36.39;100892.03;143741;613;45019;-84
2021/05/06 07:46:00;;;;;;;7.53;1.60;;;;;;;26.91;33.61;100889.31;143743;566;46008;-84
2021/05/06 07:48:27;;;;;;;6.70;1.73;;;;;;;27.01;34.24;100893.69;143738;618;46016;-88
2021/05/06 07:50:54;;;;;;;8.40;1.83;;;;;;;26.75;33.59;100863.00;143741;608;46008;-90
2021/05/06 07:53:26;;;;;;;8.27;1.70;;;;;;;26.94;33.82;100897.97;143739;572;46018;-88
2021/05/06 07:55:57;;;;;;;10.35;1.80;;;;;;;26.78;34.42;100892.34;143742;589;47006;-89
2021/05/06 07:58:24;;;;;;;10.52;1.85;;;;;;;26.88;34.06;100892.31;143737;597;46017;-86
2021/05/06 08:00:51;;;;;;;8.43;2.22;;;;;;;26.81;34.20;100898.28;143739;626;46020;-87
2021/05/06 08:03:18;;;;;;;11.63;1.90;;;;;;;26.93;34.19;100906.19;143742;625;47006;-87
2021/05/06 08:05:46;;;;;;;8.15;2.00;;;;;;;26.97;34.24;100899.50;143741;607;46021;-87
2021/05/06 08:08:13;;;;;;;6.03;1.70;;;;;;;26.69;31.53;100912.84;143740;602;46012;-87
2021/05/06 08:10:42;;;;;;;8.00;1.70;;;;;;;26.92;33.54;100915.28;143742;592;46008;-88
2021/05/06 08:13:09;;;;;;;5.95;1.52;;;;;;;27.10;33.62;100927.00;143740;634;46018;-85
2021/05/06 08:15:36;;;;;;;7.00;1.95;;;;;;;27.10;33.21;100924.28;143742;566;46020;-89
2021/05/06 08:18:04;;;;;;;8.70;2.47;;;;;;;27.21;33.46;100927.81;143742;611;45904;-85
2021/05/06 08:20:32;;;;;;;8.18;1.67;;;;;;;27.35;32.50;100921.94;143742;572;46008;-88
2021/05/06 08:22:59;;;;;;;9.93;1.87;;;;;;;27.33;32.55;100915.88;143742;603;46008;-87
2021/05/06 08:25:26;;;;;;;4.97;1.50;;;;;;;27.32;31.40;100919.56;143743;623;46008;-88
2021/05/06 08:27:53;;;;;;;5.35;1.58;;;;;;;27.59;33.21;100923.31;143741;616;46018;-88
2021/05/06 08:30:21;;;;;;;6.18;1.65;;;;;;;27.64;30.21;100929.09;143739;569;46008;-88
2021/05/06 08:32:48;;;;;;;6.03;1.40;;;;;;;27.59;31.84;100934.94;143740;638;47006;-88
2021/05/06 08:35:15;;;;;;;6.55;1.70;;;;;;;27.63;29.93;100943.59;143739;597;46008;-88
2021/05/06 08:37:42;;;;;;;6.45;1.50;;;;;;;27.93;31.08;100947.00;143738;585;46046;-89
2021/05/06 08:40:10;;;;;;;15.30;1.87;;;;;;;28.03;30.74;100947.78;143740;570;46008;-87
2021/05/06 08:42:39;;;;;;;5.57;1.52;;;;;;;28.20;29.85;100944.28;143740;569;46018;-89
2021/05/06 08:45:08;;;;;;;6.07;1.83;;;;;;;27.99;28.73;100952.59;143742;565;46010;-89
2021/05/06 08:47:35;;;;;;;5.00;1.50;;;;;;;27.95;28.75;100950.38;143741;563;46010;-87
2021/05/06 08:50:03;;;;;;;7.53;1.45;;;;;;;27.84;30.65;100960.38;143739;578;47008;-87
2021/05/06 08:52:30;;;;;;;6.18;1.23;;;;;;;27.90;30.17;100953.53;143740;649;46027;-89
2021/05/06 08:54:58;;;;;;;5.97;1.40;;;;;;;27.99;29.81;100949.06;143742;572;46020;-88
2021/05/06 08:57:27;;;;;;;7.40;1.60;;;;;;;27.73;26.58;100947.06;143738;629;47020;-88
2021/05/06 08:59:54;;;;;;;6.85;2.10;;;;;;;27.56;27.86;100950.56;143741;587;46008;-87
2021/05/06 09:02:22;;;;;;;5.85;1.80;;;;;;;27.26;31.87;100961.41;143741;650;46008;-87
2021/05/06 09:04:49;;;;;;;7.45;2.40;;;;;;;27.33;32.56;100957.12;143741;583;46020;-85
2021/05/06 09:07:16;;;;;;;6.43;1.45;;;;;;;27.53;32.55;100952.56;143742;576;46010;-83
2021/05/06 09:09:50;;;;;;;7.97;1.70;;;;;;;27.34;33.14;100958.84;143741;665;46020;-85
2021/05/06 09:12:17;;;;;;;9.05;1.90;;;;;;;27.16;33.76;100960.59;143742;577;46017;-87
2021/05/06 09:14:48;;;;;;;10.40;2.08;;;;;;;27.08;34.09;100953.25;143743;587;46008;-85
2021/05/06 09:17:29;;;;;;;7.10;1.92;;;;;;;27.22;32.61;100943.84;143742;687;46016;-83
2021/05/06 09:20:20;;;;;;;4.93;1.50;;;;;;;27.07;33.49;100948.84;143741;591;47011;-88
2021/05/06 09:22:57;;;;;;;5.20;1.23;;;;;;;27.15;33.03;100951.66;143743;594;45019;-85
2021/05/06 09:25:42;;;;;;;7.40;2.20;;;;;;;26.99;33.50;100946.88;143742;773;47010;-86
2021/05/06 09:28:20;;;;;;;9.13;2.17;;;;;;;26.67;34.51;100944.47;143739;626;47020;-86
2021/05/06 09:31:06;;;;;;;4.43;1.70;;;;;;;26.55;35.26;100949.16;143742;773;46020;-88
2021/05/06 09:33:40;;;;;;;5.47;1.60;;;;;;;26.90;33.64;100949.56;143741;609;46018;-83
2021/05/06 09:36:19;;;;;;;6.80;1.52;;;;;;;26.81;33.20;100945.91;143742;668;46022;-86
2021/05/06 09:38:56;;;;;;;7.12;1.70;;;;;;;26.73;33.42;100949.31;143738;688;46016;-86
2021/05/06 09:41:30;;;;;;;6.25;1.50;;;;;;;26.87;32.24;100950.72;143742;616;46008;-86
2021/05/06 09:44:16;;;;;;;8.02;1.52;;;;;;;26.77;31.80;100939.94;143742;748;46008;-84
2021/05/06 09:46:56;;;;;;;4.40;1.50;;;;;;;26.76;31.51;100943.62;143742;747;47010;-85
2021/05/06 09:49:24;;;;;;;4.65;1.35;;;;;;;27.06;31.61;100944.44;143741;718;46904;-86
2021/05/06 09:51:59;;;;;;;6.37;1.52;;;;;;;26.90;32.41;100947.75;143740;573;46008;-83
2021/05/06 09:54:31;;;;;;;4.50;1.35;;;;;;;26.79;31.08;100943.38;143742;611;46025;-87
2021/05/06 09:57:07;;;;;;;4.60;1.60;;;;;;;26.75;31.53;100949.16;143743;581;46008;-82
2021/05/06 09:59:38;;;;;;;4.22;1.58;;;;;;;26.88;30.35;100930.88;143741;575;46016;-86
2021/05/06 10:02:14;;;;;;;4.47;1.40;;;;;;;26.91;30.11;100929.72;143742;610;46008;-86
2021/05/06 10:04:47;;;;;;;6.90;1.77;;;;;;;26.99;30.14;100932.56;143742;570;46904;-89
2021/05/06 10:07:25;;;;;;;4.45;1.67;;;;;;;27.00;30.23;100931.56;143742;592;46029;-83
2021/05/06 10:10:09;;;;;;;6.12;1.75;;;;;;;27.11;30.77;100935.94;143740;577;46016;-92
2021/05/06 10:12:39;;;;;;;7.87;1.60;;;;;;;27.22;30.42;100938.47;143742;571;46021;-88
2021/05/06 10:15:09;;;;;;;6.53;1.50;;;;;;;27.44;30.11;100923.78;143742;578;46028;-83
2021/05/06 10:17:37;;;;;;;4.78;1.60;;;;;;;27.34;29.46;100920.28;143744;611;47010;-85
2021/05/06 10:20:06;;;;;;;7.47;1.67;;;;;;;27.60;28.80;100914.19;143632;591;57838;-88
2021/05/06 10:22:34;;;;;;;5.90;1.50;;;;;;;27.55;28.29;100930.84;143739;583;46020;-87
2021/05/06 10:25:06;;;;;;;5.07;1.52;;;;;;;27.76;28.63;100927.91;143741;595;47012;-89
2021/05/06 10:27:34;;;;;;;4.93;1.50;;;;;;;27.62;29.20;100933.78;143743;556;46019;-87
2021/05/06 10:30:06;;;;;;;5.28;1.52;;;;;;;27.57;28.64;100888.41;143739;577;46906;-86
2021/05/06 10:32:35;;;;;;;7.28;1.48;;;;;;;27.71;29.17;100924.81;143741;611;47010;-89
2021/05/06 10:35:21;;;;;;;5.57;1.33;;;;;;;27.55;28.42;100932.69;143739;571;48029;-83
2021/05/06 10:37:58;;;;;;;5.90;1.50;;;;;;;27.02;28.76;100938.50;143743;588;48008;-81
2021/05/06 10:40:29;;;;;;;5.32;1.50;;;;;;;27.07;29.43;100935.37;143739;600;46016;-87
2021/05/06 10:43:18;;;;;;;5.35;1.50;;;;;;;26.98;29.78;100937.09;143742;569;46010;-88
2021/05/06 10:46:03;;;;;;;5.03;1.50;;;;;;;27.15;29.39;100931.97;143742;587;46010;-85
2021/05/06 10:49:02;;;;;;;5.47;1.42;;;;;;;26.72;29.83;100898.28;143741;571;46020;-87
2021/05/06 10:52:04;;;;;;;5.70;1.50;;;;;;;26.97;29.96;100903.06;143741;612;46012;-88
2021/05/06 10:54:53;;;;;;;6.55;1.20;;;;;;;27.40;30.01;100929.63;143742;591;46008;-86
2021/05/06 10:57:34;;;;;;;5.62;1.50;;;;;;;27.76;28.62;100930.62;143741;582;46010;-90
2021/05/06 11:00:04;;;;;;;6.55;1.48;;;;;;;27.78;28.55;100939.38;143741;580;47010;-88
2021/05/06 11:03:04;;;;;;;4.53;1.48;;;;;;;27.95;28.17;100935.03;143739;602;47020;-85
2021/05/06 11:05:31;;;;;;;9.88;1.70;;;;;;;27.93;28.04;100941.59;143741;672;46021;-90
2021/05/06 11:08:28;;;;;;;4.65;1.33;;;;;;;27.74;28.10;100911.03;143741;624;46018;-87
2021/05/06 11:11:13;;;;;;;5.95;1.40;;;;;;;27.95;27.74;100936.88;143743;598;47012;-87
2021/05/06 11:14:06;;;;;;;7.18;1.50;;;;;;;27.98;27.56;100923.94;143741;670;46021;-86
2021/05/06 11:16:34;;;;;;;6.35;2.17;;;;;;;28.03;26.79;100937.00;143741;585;47010;-87
2021/05/06 11:19:02;;;;;;;3.87;1.40;;;;;;;27.73;26.80;100930.91;143743;591;46011;-88
2021/05/06 11:21:37;;;;;;;6.60;1.42;;;;;;;27.67;27.04;100939.59;143742;565;47010;-86
2021/05/06 11:24:26;;;;;;;9.05;1.70;;;;;;;27.74;27.03;100927.19;143739;563;46016;-86
2021/05/06 11:27:34;;;;;;;6.75;1.73;;;;;;;27.46;27.75;100912.84;143740;585;46913;-91
2021/05/06 11:30:48;;;;;;;4.65;1.40;;;;;;;27.76;27.04;100935.16;143743;563;46018;-85
2021/05/06 11:33:33;;;;;;;7.65;2.12;;;;;;;27.72;26.97;100926.53;143742;586;48012;-84
2021/05/06 11:36:20;;;;;;;5.53;1.60;;;;;;;27.62;27.42;100925.72;143736;585;47019;-90
2021/05/06 11:38:56;;;;;;;5.50;1.20;;;;;;;27.71;26.72;100922.13;143739;574;47010;-84
2021/05/06 11:41:33;;;;;;;4.95;1.50;;;;;;;27.72;26.37;100923.81;143742;639;46010;-84
2021/05/06 11:44:04;;;;;;;8.60;2.17;;;;;;;27.93;25.80;100922.72;143745;658;46010;-86
2021/05/06 11:46:38;;;;;;;6.05;1.65;;;;;;;27.86;26.28;100925.16;143739;619;46016;-87
2021/05/06 11:49:07;;;;;;;;;;;;;;;27.93;26.77;100934.34;143746;979;46010;-90
2021/05/06 11:51:48;;;;;;;8.27;1.37;;;;;;;27.69;26.78;100943.84;143743;570;47008;-88
2021/05/06 11:54:23;;;;;;;8.05;1.52;;;;;;;27.61;26.47;100953.66;143744;571;47010;-85
2021/05/06 11:57:00;;;;;;;4.60;1.20;;;;;;;27.46;26.03;100940.69;143739;576;46017;-83
2021/05/06 11:59:30;;;;;;;5.85;1.45;;;;;;;27.77;25.32;100947.62;143742;614;46008;-81
2021/05/06 12:02:07;;;;;;;4.20;1.27;;;;;;;27.40;25.51;100951.19;143743;582;46010;-84
2021/05/06 12:04:36;;;;;;;5.12;1.33;;;;;;;27.51;26.42;100943.75;143743;580;46018;-78
2021/05/06 12:07:20;;;;;;;4.32;1.20;;;;;;;28.06;25.36;100936.69;143740;597;46012;-81
2021/05/06 12:09:49;;;;;;;5.47;1.83;;;;;;;28.19;25.02;100926.38;143741;628;47008;-82
2021/05/06 12:12:28;;;;;;;10.32;1.60;;;;;;;28.40;24.71;100909.03;143740;566;46019;-80
2021/05/06 12:15:01;;;;;;;3.67;1.58;;;;;;;28.24;25.07;100904.34;143737;585;46020;-82
2021/05/06 12:17:28;;;;;;;;;;;;;;;28.44;24.65;100907.72;143742;980;47020;-81
2021/05/06 12:20:00;;;;;;;6.70;1.55;;;;;;;28.43;24.59;100911.44;143752;587;45021;-81
2021/05/06 12:22:27;;;;;;;5.87;1.40;;;;;;;28.56;24.47;100899.41;143741;618;47012;-80
2021/05/06 12:24:55;;;;;;;5.75;1.30;;;;;;;28.52;24.81;100912.34;143742;717;47012;-80
2021/05/06 12:27:29;;;;;;;7.15;1.48;;;;;;;28.60;24.55;100908.88;143740;598;47012;-80
2021/05/06 12:30:16;;;;;;;4.57;1.52;;;;;;;28.53;24.88;100906.78;143741;583;46020;-81
2021/05/06 12:32:46;;;;;;;4.82;1.40;;;;;;;28.62;25.04;100888.78;143742;601;46016;-82
2021/05/06 12:35:14;;;;;;;4.35;1.40;;;;;;;28.29;25.71;100887.69;143742;587;47010;-81
2021/05/06 12:37:44;;;;;;;7.40;1.40;;;;;;;28.48;25.03;100876.69;143740;611;47012;-80
2021/05/06 12:40:13;;;;;;;5.60;1.30;;;;;;;28.59;24.43;100872.06;143740;645;46020;-80
2021/05/06 12:42:40;;;;;;;5.50;1.45;;;;;;;28.53;25.20;100868.97;143741;738;46016;-82
2021/05/06 12:45:31;;;;;;;5.97;1.30;;;;;;;28.31;25.50;100843.31;143742;582;47012;-81
2021/05/06 12:47:58;;;;;;;6.32;1.42;;;;;;;28.61;25.13;100867.34;143739;579;47013;-81
2021/05/06 12:50:30;;;;;;;6.32;1.40;;;;;;;28.61;25.71;100868.22;143741;612;46020;-82
2021/05/06 12:53:08;;;;;;;5.07;1.27;;;;;;;28.49;25.92;100856.78;143740;574;46018;-83
2021/05/06 12:55:43;;;;;;;9.55;1.77;;;;;;;28.41;26.48;100853.19;143742;581;47012;-83
2021/05/06 12:58:27;;;;;;;3.25;1.20;;;;;;;28.20;26.23;100846.28;143737;565;47021;-82
2021/05/06 13:01:11;;;;;;;4.68;1.20;;;;;;;28.39;25.61;100852.50;143741;611;46012;-82
2021/05/06 13:03:43;;;;;;;5.37;1.25;;;;;;;28.45;25.28;100841.06;143740;565;46019;-82
2021/05/06 13:06:16;;;;;;;4.90;1.40;;;;;;;28.59;25.13;100835.09;143742;597;47012;-78
2021/05/06 13:08:45;;;;;;;5.00;1.20;;;;;;;28.26;25.50;100842.09;143741;571;46016;-83
2021/05/06 13:11:20;;;;;;;6.72;1.30;;;;;;;28.54;25.59;100853.63;143740;653;46011;-80
2021/05/06 13:13:53;;;;;;;3.25;1.15;;;;;;;28.40;25.59;100851.50;143742;563;46018;-82
2021/05/06 13:16:45;;;;;;;;;;;;;;;28.40;25.52;100852.34;143747;971;46020;-81
2021/05/06 13:19:19;;;;;;;5.72;1.83;;;;;;;28.47;25.12;100850.72;143745;598;46018;-82
2021/05/06 13:21:57;;;;;;;5.22;1.50;;;;;;;28.40;25.61;100856.91;143741;575;46010;-82
2021/05/06 13:24:39;;;;;;;5.87;1.75;;;;;;;28.45;24.83;100860.81;143740;577;46018;-81
2021/05/06 13:27:26;;;;;;;6.97;2.00;;;;;;;28.20;24.57;100855.22;143741;592;46021;-80
2021/05/06 13:30:03;;;;;;;5.47;1.25;;;;;;;27.94;25.11;100862.34;143737;632;47020;-78
2021/05/06 13:32:39;;;;;;;5.10;1.30;;;;;;;27.68;25.12;100858.53;143741;595;46020;-84
2021/05/06 13:35:16;;;;;;;4.10;1.10;;;;;;;27.70;25.15;100864.63;143739;572;46019;-84
2021/05/06 13:37:46;;;;;;;4.55;1.10;;;;;;;27.78;25.25;100863.87;143739;613;47010;-79
2021/05/06 13:40:14;;;;;;;5.30;1.08;;;;;;;27.66;25.10;100857.81;143739;576;46016;-81
2021/05/06 13:42:41;;;;;;;3.97;1.00;;;;;;;27.83;24.75;100849.91;143738;591;47008;-82
2021/05/06 13:45:11;;;;;;;5.25;1.35;;;;;;;27.73;25.67;100855.38;143738;601;47008;-83
2021/05/06 13:47:38;;;;;;;5.30;1.30;;;;;;;27.48;26.85;100862.34;143740;590;46018;-81
2021/05/06 13:50:06;;;;;;;3.75;1.35;;;;;;;27.43;26.66;100841.22;143737;587;47010;-81
2021/05/06 13:52:33;;;;;;;6.45;1.20;;;;;;;27.49;26.55;100846.00;143739;583;47008;-82
2021/05/06 13:55:02;;;;;;;4.72;1.30;;;;;;;27.84;25.85;100833.59;143741;573;46017;-84
2021/05/06 13:57:32;;;;;;;6.82;1.50;;;;;;;27.90;25.66;100844.75;143740;583;47010;-82
2021/05/06 13:59:59;;;;;;;4.57;1.10;;;;;;;28.19;24.09;100839.19;143739;569;46016;-80
2021/05/06 14:02:28;;;;;;;3.37;1.20;;;;;;;28.08;24.11;100836.72;143739;606;47011;-81
2021/05/06 14:04:55;;;;;;;3.12;1.20;;;;;;;27.93;24.87;100829.13;143738;636;46019;-85
2021/05/06 14:07:22;;;;;;;3.28;1.20;;;;;;;27.82;25.33;100838.28;143741;640;47010;-80
2021/05/06 14:09:49;;;;;;;3.37;1.10;;;;;;;27.93;24.78;100833.69;143737;581;46018;-81
2021/05/06 14:12:17;;;;;;;4.28;1.10;;;;;;;27.78;25.38;100820.72;143740;604;46009;-80
2021/05/06 14:14:44;;;;;;;7.68;1.23;;;;;;;27.80;25.55;100829.50;143739;615;46008;-82
2021/05/06 14:17:11;;;;;;;2.72;1.08;;;;;;;27.83;25.92;100826.50;143741;574;47010;-80
2021/05/06 14:19:38;;;;;;;3.55;1.12;;;;;;;27.92;25.09;100832.81;143734;569;47019;-79
2021/05/06 14:22:05;;;;;;;3.97;1.20;;;;;;;27.94;24.89;100824.56;143739;603;46008;-81
2021/05/06 14:24:32;;;;;;;5.40;1.20;;;;;;;27.43;25.32;100821.50;143736;585;47020;-84
2021/05/06 14:27:03;;;;;;;2.90;1.17;;;;;;;27.55;25.17;100825.69;143743;623;46019;-85
2021/05/06 14:29:30;;;;;;;4.93;1.05;;;;;;;27.82;25.02;100823.97;143737;640;46908;-85
2021/05/06 14:31:57;;;;;;;4.70;1.00;;;;;;;27.83;25.08;100822.94;143740;600;45020;-83
2021/05/06 14:34:24;;;;;;;7.10;1.75;;;;;;;27.66;25.32;100816.53;143739;592;47008;-78
2021/05/06 14:36:51;;;;;;;2.22;1.00;;;;;;;27.76;24.87;100816.47;143739;608;48010;-82